Terminal Aerodrome Forecast
Issued by NWS

Home | Current Version | Previous Version | Text Only | Print | Product List | Glossary On
Versions: 1 2 3 4 5 6 7 8 9 10 11 12 13 14 15 16 17 18 19
000
FTUS44 KLZK 171737
TAFHOT
TAF
KHOT 171737Z 1718/1818 18008KT P6SM OVC015 WS020/20040KT
     FM172000 20009G18KT P6SM OVC025 WS020/20040KT
     FM180100 22008G15KT P6SM OVC035
     FM180800 22008KT P6SM VCSH BKN020 OVC040
     FM181500 23010G20KT P6SM -RA VCTS BKN020 OVC050CB=

USA.gov is the U.S. government's official web portal to all federal, state and local government web resources and services.